createdAt,value
2018-06-27T00:01:20.445Z,72.94
2018-06-27T00:03:52.591Z,73.84
2018-06-27T00:06:24.762Z,73.71
2018-06-27T00:08:56.895Z,73.76
2018-06-27T00:11:28.983Z,73.20
2018-06-27T00:14:01.032Z,73.29
2018-06-27T00:16:33.155Z,74.65
2018-06-27T00:19:05.284Z,74.71
2018-06-27T00:21:37.382Z,75.73
2018-06-27T00:24:09.440Z,74.50
2018-06-27T00:26:41.528Z,75.35
2018-06-27T00:29:13.578Z,75.68
2018-06-27T00:31:45.659Z,76.29
2018-06-27T00:34:17.948Z,75.25
2018-06-27T00:36:50.003Z,75.62
2018-06-27T00:39:23.114Z,76.02
2018-06-27T00:41:55.264Z,75.81
2018-06-27T00:44:27.307Z,76.00
2018-06-27T00:46:59.509Z,75.52
2018-06-27T00:49:31.541Z,74.77
2018-06-27T00:52:03.618Z,74.45
2018-06-27T00:54:35.680Z,75.22
2018-06-27T00:57:07.815Z,75.90
2018-06-27T00:59:39.885Z,76.45
2018-06-27T01:02:12.005Z,75.88
2018-06-27T01:04:44.095Z,75.51
2018-06-27T01:07:16.178Z,75.91
2018-06-27T01:09:48.240Z,76.01
2018-06-27T01:12:20.300Z,75.04
2018-06-27T01:14:52.337Z,75.93
2018-06-27T01:17:24.435Z,77.12
2018-06-27T01:19:56.585Z,76.68
2018-06-27T01:22:28.657Z,77.61
2018-06-27T01:25:00.727Z,79.17
2018-06-27T01:27:32.795Z,79.83
2018-06-27T01:30:05.015Z,80.56
2018-06-27T01:32:37.103Z,79.72
2018-06-27T01:35:09.203Z,79.53
2018-06-27T01:37:41.283Z,77.87
2018-06-27T01:40:13.644Z,77.20
2018-06-27T01:42:45.697Z,77.08
2018-06-27T01:45:17.789Z,77.73
2018-06-27T01:47:49.837Z,77.64
2018-06-27T01:50:22.759Z,77.84
2018-06-27T01:52:54.815Z,77.56
2018-06-27T01:55:26.887Z,77.84
2018-06-27T01:57:58.992Z,78.11
2018-06-27T02:00:31.069Z,79.15
2018-06-27T02:03:03.202Z,80.00
2018-06-27T02:05:35.307Z,81.04
2018-06-27T02:08:07.406Z,81.88
2018-06-27T02:10:39.485Z,81.85
2018-06-27T02:13:11.570Z,83.08
2018-06-27T02:15:43.623Z,83.99
2018-06-27T02:18:15.833Z,84.44
2018-06-27T02:20:47.888Z,84.95
2018-06-27T02:23:19.979Z,85.87
2018-06-27T02:25:52.080Z,86.43
2018-06-27T02:28:24.166Z,86.44
2018-06-27T02:30:56.256Z,87.04
2018-06-27T02:33:29.234Z,88.10
2018-06-27T02:36:01.413Z,88.09
2018-06-27T02:38:33.679Z,87.96
2018-06-27T02:41:05.808Z,86.78
2018-06-27T02:43:38.999Z,85.73
2018-06-27T02:46:11.074Z,84.73
2018-06-27T02:48:43.211Z,83.22
2018-06-27T02:51:15.296Z,82.88
2018-06-27T02:53:47.371Z,83.44
2018-06-27T02:56:19.470Z,83.80
2018-06-27T02:58:51.543Z,84.56
2018-06-27T03:01:23.669Z,84.79
2018-06-27T03:03:55.765Z,84.55
2018-06-27T03:06:27.892Z,84.67
2018-06-27T03:09:00.033Z,84.79
2018-06-27T03:11:32.094Z,84.86
2018-06-27T03:14:04.238Z,85.34
2018-06-27T03:16:36.288Z,85.16
2018-06-27T03:19:08.366Z,84.48
2018-06-27T03:21:40.447Z,84.72
2018-06-27T03:24:12.556Z,84.62
2018-06-27T03:26:44.635Z,84.36
2018-06-27T03:29:17.603Z,84.75
2018-06-27T03:31:49.671Z,83.81
2018-06-27T03:34:21.794Z,84.50
2018-06-27T03:36:53.850Z,84.04
2018-06-27T03:39:25.931Z,83.64
2018-06-27T03:41:57.995Z,83.87
2018-06-27T03:44:30.108Z,83.19
2018-06-27T03:47:02.375Z,83.45
2018-06-27T03:49:34.413Z,83.14
2018-06-27T03:52:06.665Z,83.80
2018-06-27T03:54:38.785Z,83.84
2018-06-27T03:57:10.870Z,83.42
2018-06-27T03:59:42.945Z,83.40
2018-06-27T04:02:14.996Z,82.49
2018-06-27T04:04:47.073Z,82.45
2018-06-27T04:07:19.152Z,81.87
2018-06-27T04:09:51.213Z,82.01
2018-06-27T04:12:23.260Z,82.13
2018-06-27T04:14:55.298Z,81.04
2018-06-27T04:17:27.378Z,80.23
2018-06-27T04:19:59.466Z,79.78
2018-06-27T04:22:33.971Z,79.98
2018-06-27T04:25:06.057Z,79.16
2018-06-27T04:27:38.101Z,79.46
2018-06-27T04:30:10.189Z,78.85
2018-06-27T04:32:42.236Z,77.95
2018-06-27T04:35:14.325Z,77.19
2018-06-27T04:37:46.608Z,77.62
2018-06-27T04:40:18.740Z,77.38
2018-06-27T04:42:50.791Z,76.57
2018-06-27T04:45:22.866Z,75.82
2018-06-27T04:47:54.903Z,74.80
2018-06-27T04:50:27.001Z,73.66
2018-06-27T04:52:59.092Z,69.21
2018-06-27T04:55:31.381Z,64.51
2018-06-27T04:58:03.464Z,63.48
2018-06-27T05:00:35.577Z,66.86
2018-06-27T05:03:07.653Z,63.16
2018-06-27T05:05:39.789Z,56.77
2018-06-27T05:08:11.844Z,53.59
2018-06-27T05:10:43.951Z,50.50
2018-06-27T05:13:16.034Z,51.01
2018-06-27T05:15:48.132Z,52.48
2018-06-27T05:18:20.157Z,53.00
2018-06-27T05:20:52.279Z,51.91
2018-06-27T05:23:24.366Z,49.97
2018-06-27T05:25:56.450Z,48.92
2018-06-27T05:28:28.573Z,50.64
2018-06-27T05:31:00.640Z,48.46
2018-06-27T05:33:32.725Z,49.84
2018-06-27T05:36:04.899Z,49.82
2018-06-27T05:38:36.964Z,49.45
2018-06-27T05:41:09.110Z,49.34
2018-06-27T05:43:41.189Z,48.42
2018-06-27T05:46:13.299Z,47.80
2018-06-27T05:48:45.384Z,47.22
2018-06-27T05:51:17.737Z,46.92
2018-06-27T05:53:49.892Z,48.28
2018-06-27T05:56:21.948Z,45.82
2018-06-27T05:58:55.026Z,45.77
2018-06-27T06:01:27.260Z,45.38
2018-06-27T06:03:59.380Z,45.46
2018-06-27T06:06:31.596Z,46.06
2018-06-27T06:09:07.799Z,45.74
2018-06-27T06:11:39.948Z,46.04
2018-06-27T06:14:12.031Z,47.58
2018-06-27T06:16:44.125Z,45.60
2018-06-27T06:19:16.181Z,44.70
2018-06-27T06:21:48.274Z,44.81
2018-06-27T06:24:20.478Z,45.00
2018-06-27T06:26:52.589Z,43.88
2018-06-27T06:29:24.731Z,42.08
2018-06-27T06:31:56.912Z,40.14
2018-06-27T06:34:29.038Z,42.02
2018-06-27T06:37:01.179Z,41.91
2018-06-27T06:39:33.400Z,42.38
2018-06-27T06:42:05.665Z,40.13
2018-06-27T06:44:37.761Z,41.17
2018-06-27T06:47:09.863Z,41.71
2018-06-27T06:49:42.004Z,40.45
2018-06-27T06:52:14.334Z,41.25
2018-06-27T06:54:46.418Z,40.73
2018-06-27T06:57:18.628Z,38.93
2018-06-27T06:59:50.723Z,39.02
2018-06-27T07:02:22.902Z,38.35
2018-06-27T07:04:57.310Z,36.86
2018-06-27T07:07:29.506Z,36.03
2018-06-27T07:10:01.656Z,34.74
2018-06-27T07:12:33.833Z,35.51
2018-06-27T07:15:06.081Z,34.92
2018-06-27T07:17:38.420Z,37.13
2018-06-27T07:20:12.694Z,40.49
2018-06-27T07:22:44.827Z,41.49
2018-06-27T07:25:16.935Z,38.74
2018-06-27T07:27:49.044Z,42.32
2018-06-27T07:30:21.161Z,45.68
2018-06-27T07:32:53.395Z,43.64
2018-06-27T07:35:25.539Z,44.89
2018-06-27T07:37:57.727Z,44.48
2018-06-27T07:40:29.937Z,44.63
2018-06-27T07:43:02.143Z,45.89
2018-06-27T07:45:34.305Z,43.15
2018-06-27T07:48:06.445Z,40.92
2018-06-27T07:50:38.629Z,37.81
2018-06-27T07:53:11.372Z,34.82
2018-06-27T07:55:43.534Z,35.90
2018-06-27T07:58:15.755Z,36.51
2018-06-27T08:00:47.831Z,34.13
2018-06-27T08:03:19.945Z,33.85
2018-06-27T08:05:52.122Z,31.90
2018-06-27T08:08:24.192Z,32.22
2018-06-27T08:10:56.611Z,34.63
2018-06-27T08:13:28.688Z,32.08
2018-06-27T08:16:00.854Z,31.50
2018-06-27T08:18:37.458Z,27.93
2018-06-27T08:21:09.906Z,27.58
2018-06-27T08:23:42.190Z,33.20
2018-06-27T08:26:14.388Z,31.91
2018-06-27T08:28:46.416Z,30.72
2018-06-27T08:31:18.534Z,31.58
2018-06-27T08:33:50.736Z,37.09
2018-06-27T08:36:22.832Z,39.99
2018-06-27T08:38:54.941Z,40.39
2018-06-27T08:41:27.065Z,42.52
2018-06-27T08:43:59.235Z,43.07
2018-06-27T08:46:31.379Z,42.16
2018-06-27T08:49:03.564Z,39.27
2018-06-27T08:51:36.692Z,40.84
2018-06-27T08:54:08.824Z,42.29
2018-06-27T08:56:40.909Z,43.65
2018-06-27T08:59:13.050Z,39.01
2018-06-27T09:01:45.145Z,39.41
2018-06-27T09:04:17.199Z,38.19
2018-06-27T09:06:49.372Z,36.24
2018-06-27T09:09:21.480Z,36.19
2018-06-27T09:11:53.668Z,37.17
2018-06-27T09:14:25.844Z,35.21
2018-06-27T09:16:57.933Z,36.27
2018-06-27T09:19:30.116Z,40.26
2018-06-27T09:22:02.207Z,40.78
2018-06-27T09:24:34.568Z,38.84
2018-06-27T09:27:08.873Z,41.60
2018-06-27T09:29:40.972Z,39.65
2018-06-27T09:32:13.201Z,38.89
2018-06-27T09:34:45.363Z,37.42
2018-06-27T09:37:17.567Z,35.97
2018-06-27T09:39:49.656Z,34.91
2018-06-27T09:42:21.752Z,34.84
2018-06-27T09:44:54.869Z,35.24
2018-06-27T09:47:26.952Z,36.75
2018-06-27T09:49:59.263Z,35.16
2018-06-27T09:52:31.530Z,37.01
2018-06-27T09:55:04.730Z,35.73
2018-06-27T09:57:36.868Z,34.58
2018-06-27T10:00:14.466Z,36.18
2018-06-27T10:02:46.541Z,38.34
2018-06-27T10:05:18.701Z,38.37
2018-06-27T10:07:50.848Z,40.06
2018-06-27T10:10:24.071Z,41.12
2018-06-27T10:12:56.555Z,39.76
2018-06-27T10:15:28.647Z,38.15
2018-06-27T10:18:00.804Z,38.94
2018-06-27T10:20:33.976Z,37.72
2018-06-27T10:23:06.159Z,34.87
2018-06-27T10:25:38.405Z,34.75
2018-06-27T10:28:10.560Z,34.54
2018-06-27T10:30:42.677Z,33.65
2018-06-27T10:33:15.440Z,32.66
2018-06-27T10:35:47.693Z,33.33
2018-06-27T10:38:19.887Z,32.25
2018-06-27T10:40:52.040Z,31.27
2018-06-27T10:43:26.200Z,33.14
2018-06-27T10:45:58.405Z,31.00
2018-06-27T10:48:30.699Z,33.16
2018-06-27T10:51:02.855Z,32.97
2018-06-27T10:53:35.168Z,31.92
2018-06-27T10:56:07.313Z,32.33
2018-06-27T10:58:39.480Z,33.83
2018-06-27T11:01:15.669Z,32.52
2018-06-27T11:03:48.259Z,31.66
2018-06-27T11:06:20.433Z,32.27
2018-06-27T11:08:52.867Z,32.69
2018-06-27T11:11:24.993Z,31.12
2018-06-27T11:13:58.234Z,30.56
2018-06-27T11:16:30.510Z,30.81
2018-06-27T11:19:02.560Z,29.50
2018-06-27T11:21:34.963Z,30.66
2018-06-27T11:24:07.248Z,28.40
2018-06-27T11:26:39.335Z,30.30
2018-06-27T11:29:11.451Z,29.61
2018-06-27T11:31:47.237Z,30.33
2018-06-27T11:34:20.242Z,30.79
2018-06-27T11:36:52.343Z,30.13
2018-06-27T11:39:24.820Z,28.59
2018-06-27T11:41:57.240Z,27.68
2018-06-27T11:44:29.397Z,29.00
2018-06-27T11:47:01.477Z,30.33
2018-06-27T11:49:33.564Z,30.45
2018-06-27T11:52:05.831Z,28.55
2018-06-27T11:54:37.957Z,26.09
2018-06-27T11:57:10.460Z,28.37
2018-06-27T11:59:42.940Z,28.22
2018-06-27T12:02:17.490Z,27.73
2018-06-27T12:04:49.725Z,30.21
2018-06-27T12:07:22.111Z,30.44
2018-06-27T12:09:54.264Z,31.11
2018-06-27T12:12:26.458Z,31.89
2018-06-27T12:14:58.769Z,33.69
2018-06-27T12:17:31.019Z,34.31
2018-06-27T12:20:03.548Z,30.70
2018-06-27T12:22:35.699Z,26.67
2018-06-27T12:25:08.763Z,26.33
2018-06-27T12:27:41.311Z,28.98
2018-06-27T12:30:21.264Z,29.20
2018-06-27T12:33:00.278Z,30.65
2018-06-27T12:35:32.452Z,31.96
2018-06-27T12:38:04.935Z,32.19
2018-06-27T12:40:37.097Z,32.75
2018-06-27T12:43:09.336Z,31.25
2018-06-27T12:45:41.445Z,32.93
2018-06-27T12:48:13.665Z,33.03
2018-06-27T12:50:45.797Z,31.97
2018-06-27T12:53:17.935Z,32.21
2018-06-27T12:55:50.056Z,29.63
2018-06-27T12:58:22.279Z,31.01
2018-06-27T13:00:54.497Z,33.77
2018-06-27T13:03:26.784Z,32.17
2018-06-27T13:05:59.989Z,33.80
2018-06-27T13:08:32.359Z,33.13
2018-06-27T13:11:04.822Z,32.56
2018-06-27T13:13:37.000Z,34.51
2018-06-27T13:16:09.181Z,33.51
2018-06-27T13:18:41.417Z,28.68
2018-06-27T13:21:13.589Z,26.51
2018-06-27T13:23:45.716Z,25.65
2018-06-27T13:26:17.876Z,28.08
2018-06-27T13:28:50.246Z,32.41
2018-06-27T13:31:22.369Z,35.29
2018-06-27T13:33:54.534Z,36.90
2018-06-27T13:36:26.688Z,36.42
2018-06-27T13:38:58.870Z,35.68
2018-06-27T13:41:32.216Z,37.67
2018-06-27T13:44:04.656Z,40.29
2018-06-27T13:46:36.729Z,41.65
2018-06-27T13:49:08.922Z,42.17
2018-06-27T13:51:41.129Z,42.49
2018-06-27T13:54:13.328Z,42.55
2018-06-27T13:56:46.583Z,42.62
2018-06-27T13:59:19.204Z,41.99
2018-06-27T14:01:52.628Z,41.75
2018-06-27T14:04:24.876Z,41.30
2018-06-27T14:06:56.986Z,40.51
2018-06-27T14:09:30.122Z,37.97
2018-06-27T14:12:03.436Z,37.50
2018-06-27T14:14:38.866Z,31.83
2018-06-27T14:17:11.087Z,33.47
2018-06-27T14:19:43.210Z,31.40
2018-06-27T14:22:16.312Z,30.94
2018-06-27T14:24:48.581Z,28.48
2018-06-27T14:27:20.767Z,28.45
2018-06-27T14:29:52.933Z,31.26
2018-06-27T14:32:25.116Z,29.36
2018-06-27T14:34:57.225Z,29.08
2018-06-27T14:37:29.386Z,28.39
2018-06-27T14:40:01.536Z,27.96
2018-06-27T14:42:33.690Z,30.58
2018-06-27T14:45:06.218Z,31.17
2018-06-27T14:47:38.408Z,34.54
2018-06-27T14:50:10.511Z,37.58
2018-06-27T14:52:42.580Z,37.44
2018-06-27T14:55:14.737Z,35.03
2018-06-27T14:57:46.862Z,33.01
2018-06-27T15:00:19.045Z,32.15
2018-06-27T15:02:51.148Z,30.12
2018-06-27T15:05:23.346Z,31.81
2018-06-27T15:07:55.453Z,30.70
2018-06-27T15:10:27.769Z,31.05
2018-06-27T15:12:59.877Z,29.99
2018-06-27T15:15:32.000Z,29.15
2018-06-27T15:18:04.427Z,30.14
2018-06-27T15:20:36.588Z,30.56
2018-06-27T15:23:08.697Z,31.64
2018-06-27T15:25:40.796Z,30.42
2018-06-27T15:28:12.924Z,28.82
2018-06-27T15:30:45.082Z,30.76
2018-06-27T15:33:17.308Z,30.06
2018-06-27T15:35:49.783Z,30.32
2018-06-27T15:38:21.891Z,33.20
2018-06-27T15:40:54.020Z,32.83
2018-06-27T15:43:26.128Z,30.85
2018-06-27T15:45:58.586Z,34.01
2018-06-27T15:48:30.793Z,36.11
2018-06-27T15:51:03.006Z,36.62
2018-06-27T15:53:35.076Z,38.03
2018-06-27T15:56:08.351Z,39.12
2018-06-27T15:58:40.718Z,37.74
2018-06-27T16:01:12.872Z,37.26
2018-06-27T16:03:45.008Z,35.62
2018-06-27T16:06:17.195Z,33.37
2018-06-27T16:08:49.359Z,32.71
2018-06-27T16:11:21.661Z,31.54
2018-06-27T16:13:54.032Z,33.61
2018-06-27T16:16:26.140Z,32.49
2018-06-27T16:18:58.336Z,32.15
2018-06-27T16:21:30.664Z,30.15
2018-06-27T16:24:03.010Z,29.26
2018-06-27T16:26:37.231Z,31.33
2018-06-27T16:29:09.433Z,31.51
2018-06-27T16:31:41.618Z,34.25
2018-06-27T16:34:16.546Z,31.78
2018-06-27T16:36:48.741Z,30.42
2018-06-27T16:39:20.865Z,29.71
2018-06-27T16:41:53.058Z,29.52
2018-06-27T16:44:25.238Z,28.50
2018-06-27T16:46:57.529Z,30.18
2018-06-27T16:49:29.780Z,30.76
2018-06-27T16:52:03.289Z,35.72
2018-06-27T16:54:35.518Z,39.40
2018-06-27T16:57:07.876Z,42.12
2018-06-27T16:59:40.283Z,42.92
2018-06-27T17:02:12.587Z,44.38
2018-06-27T17:04:44.899Z,44.77
2018-06-27T17:07:17.185Z,45.13
2018-06-27T17:09:50.254Z,45.63
2018-06-27T17:12:22.653Z,45.88
2018-06-27T17:14:54.916Z,46.38
2018-06-27T17:17:27.220Z,46.61
2018-06-27T17:19:59.451Z,46.70
2018-06-27T17:22:31.849Z,47.22
2018-06-27T17:25:04.193Z,46.95
2018-06-27T17:27:36.366Z,47.39
2018-06-27T17:30:09.472Z,47.76
2018-06-27T17:32:42.192Z,47.85
2018-06-27T17:35:14.924Z,47.89
2018-06-27T17:37:47.441Z,48.47
2018-06-27T17:40:23.025Z,48.73
2018-06-27T17:42:55.284Z,48.90
2018-06-27T17:45:27.604Z,48.59
2018-06-27T17:48:00.385Z,49.37
2018-06-27T17:50:32.634Z,48.90
2018-06-27T17:53:04.979Z,48.50
2018-06-27T17:55:37.309Z,47.93
2018-06-27T17:58:09.648Z,47.91
2018-06-27T18:00:42.110Z,47.72
2018-06-27T18:03:14.293Z,47.56
2018-06-27T18:05:47.045Z,47.64
2018-06-27T18:08:19.382Z,48.45
2018-06-27T18:10:51.674Z,47.34
2018-06-27T18:13:23.899Z,46.62
2018-06-27T18:15:56.745Z,46.84
2018-06-27T18:18:29.004Z,46.97
2018-06-27T18:21:01.345Z,47.82
2018-06-27T18:23:33.597Z,47.83
2018-06-27T18:26:05.865Z,48.58
2018-06-27T18:28:38.024Z,49.38
2018-06-27T18:31:10.287Z,48.44
2018-06-27T18:33:42.500Z,48.90
2018-06-27T18:36:14.661Z,49.10
2018-06-27T18:38:46.965Z,48.56
2018-06-27T18:41:19.133Z,49.25
2018-06-27T18:43:51.220Z,50.33
2018-06-27T18:46:23.364Z,48.13
2018-06-27T18:48:55.525Z,49.24
2018-06-27T18:51:27.709Z,48.32
2018-06-27T18:53:59.851Z,49.78
2018-06-27T18:56:32.048Z,50.43
2018-06-27T18:59:04.182Z,50.35
2018-06-27T19:01:36.293Z,50.77
2018-06-27T19:04:08.433Z,51.96
2018-06-27T19:06:40.535Z,52.48
2018-06-27T19:09:12.801Z,53.01
2018-06-27T19:11:44.951Z,53.23
2018-06-27T19:14:17.089Z,54.07
2018-06-27T19:16:49.193Z,53.25
2018-06-27T19:19:21.450Z,54.89
2018-06-27T19:21:53.763Z,55.37
2018-06-27T19:24:26.101Z,55.08
2018-06-27T19:26:58.442Z,56.31
2018-06-27T19:29:31.950Z,56.33
2018-06-27T19:32:04.318Z,56.88
2018-06-27T19:34:36.476Z,57.94
2018-06-27T19:37:08.801Z,57.93
2018-06-27T19:39:41.194Z,58.52
2018-06-27T19:42:13.364Z,57.51
2018-06-27T19:44:45.655Z,57.25
2018-06-27T19:47:17.934Z,58.03
2018-06-27T19:49:57.615Z,58.06
2018-06-27T19:52:31.951Z,58.98
2018-06-27T19:55:10.963Z,59.21
2018-06-27T19:57:44.047Z,59.66
2018-06-27T20:00:16.409Z,60.78
2018-06-27T20:02:50.822Z,60.44
2018-06-27T20:05:23.101Z,60.93
2018-06-27T20:07:55.537Z,60.16
2018-06-27T20:10:27.540Z,61.11
2018-06-27T20:12:59.685Z,60.80
2018-06-27T20:15:31.989Z,61.28
2018-06-27T20:18:04.468Z,61.06
2018-06-27T20:20:36.944Z,62.17
2018-06-27T20:23:09.954Z,63.18
2018-06-27T20:25:42.242Z,62.53
2018-06-27T20:28:14.960Z,59.89
2018-06-27T20:30:49.501Z,60.23
2018-06-27T20:33:21.858Z,60.00
2018-06-27T20:35:54.057Z,60.15
2018-06-27T20:38:26.462Z,61.62
2018-06-27T20:40:58.660Z,60.55
2018-06-27T20:43:32.514Z,59.52
2018-06-27T20:46:08.534Z,60.22
2018-06-27T20:48:41.794Z,60.25
2018-06-27T20:51:16.056Z,61.07
2018-06-27T20:53:48.284Z,61.07
2018-06-27T20:56:20.809Z,59.17
2018-06-27T20:58:53.170Z,60.04
2018-06-27T21:01:25.628Z,59.91
2018-06-27T21:03:58.204Z,58.74
2018-06-27T21:06:30.560Z,59.22
2018-06-27T21:09:05.061Z,59.98
2018-06-27T21:11:37.627Z,59.83
2018-06-27T21:14:09.717Z,60.09
2018-06-27T21:16:42.152Z,61.06
2018-06-27T21:19:14.497Z,61.57
2018-06-27T21:21:47.804Z,60.70
2018-06-27T21:24:20.099Z,61.90
2018-06-27T21:26:52.285Z,62.34
2018-06-27T21:29:24.963Z,63.60
2018-06-27T21:31:57.292Z,64.73
2018-06-27T21:34:30.277Z,65.72
2018-06-27T21:37:04.136Z,67.20
2018-06-27T21:39:36.469Z,68.70
2018-06-27T21:42:29.338Z,69.67
2018-06-27T21:45:01.588Z,69.74
2018-06-27T21:47:34.524Z,69.73
2018-06-27T21:53:02.656Z,70.45
2018-06-27T21:55:34.827Z,70.65
2018-06-27T21:58:06.989Z,71.75
2018-06-27T22:00:39.258Z,71.67
2018-06-27T22:03:11.393Z,72.08
2018-06-27T22:05:43.498Z,71.56
2018-06-27T22:08:15.600Z,72.68
2018-06-27T22:10:47.698Z,73.65
2018-06-27T22:13:19.787Z,73.35
2018-06-27T22:15:51.869Z,74.40
2018-06-27T22:18:23.956Z,74.27
2018-06-27T22:20:56.037Z,72.03
2018-06-27T22:23:28.156Z,71.82
2018-06-27T22:26:00.224Z,70.01
2018-06-27T22:28:32.410Z,68.13
2018-06-27T22:31:04.579Z,67.36
2018-06-27T22:33:36.731Z,68.08
2018-06-27T22:36:08.822Z,68.36
2018-06-27T22:38:40.955Z,68.86
2018-06-27T22:41:13.076Z,69.29
2018-06-27T22:43:45.161Z,70.96
2018-06-27T22:46:17.340Z,71.78
2018-06-27T22:48:49.929Z,73.42
2018-06-27T22:51:22.095Z,74.14
2018-06-27T22:53:54.367Z,75.12
2018-06-27T22:56:26.665Z,77.44
2018-06-27T22:58:58.825Z,78.03
2018-06-27T23:01:30.999Z,78.49
2018-06-27T23:04:03.418Z,79.25
2018-06-27T23:06:35.605Z,79.46
2018-06-27T23:09:09.069Z,79.68
2018-06-27T23:11:41.229Z,79.46
2018-06-27T23:14:13.543Z,79.79
2018-06-27T23:16:45.727Z,78.80
2018-06-27T23:19:18.112Z,78.51
2018-06-27T23:21:50.248Z,78.03
2018-06-27T23:24:22.345Z,77.81
2018-06-27T23:26:54.755Z,77.16
2018-06-27T23:29:26.928Z,76.82
2018-06-27T23:31:59.605Z,76.53
2018-06-27T23:34:31.749Z,76.03
2018-06-27T23:37:04.081Z,76.32
2018-06-27T23:39:36.254Z,75.40
2018-06-27T23:42:08.506Z,74.55
2018-06-27T23:44:40.746Z,71.39
2018-06-27T23:47:12.969Z,69.81
2018-06-27T23:49:45.959Z,70.02
2018-06-27T23:52:18.159Z,68.86
2018-06-27T23:54:50.290Z,68.32
2018-06-27T23:57:22.463Z,68.81
2018-06-27T23:59:54.643Z,69.27
